createdAt,value
2023-04-11T00:00:14.177Z,100202.25
2023-04-11T00:02:41.301Z,100215.16
2023-04-11T00:05:09.301Z,100226.63
2023-04-11T00:07:36.272Z,100203.03
2023-04-11T00:10:03.656Z,100185.91
2023-04-11T00:12:30.651Z,100200.66
2023-04-11T00:14:57.624Z,100195.66
2023-04-11T00:17:24.562Z,100203.47
2023-04-11T00:19:53.420Z,100219.69
2023-04-11T00:22:20.454Z,100209.47
2023-04-11T00:24:47.357Z,100205.31
2023-04-11T00:27:14.303Z,100205.16
2023-04-11T00:29:41.378Z,100205.84
2023-04-11T00:32:08.497Z,100190.63
2023-04-11T00:34:35.818Z,100227.00
2023-04-11T00:37:02.996Z,100168.09
2023-04-11T00:39:33.731Z,100219.00
2023-04-11T00:42:08.697Z,100191.31
2023-04-11T00:44:36.430Z,100232.03
2023-04-11T00:47:07.030Z,100215.78
2023-04-11T00:49:34.648Z,100201.97
2023-04-11T00:52:03.134Z,100215.03
2023-04-11T00:54:31.629Z,100160.22
2023-04-11T00:57:03.242Z,100214.81
2023-04-11T00:59:32.522Z,100207.94
2023-04-11T01:02:00.366Z,100189.16
2023-04-11T01:04:29.504Z,100216.16
2023-04-11T01:07:07.861Z,100199.53
2023-04-11T01:09:36.375Z,100193.44
2023-04-11T01:12:05.267Z,100200.66
2023-04-11T01:14:32.256Z,100218.50
2023-04-11T01:17:02.002Z,100204.84
2023-04-11T01:19:29.931Z,100204.09
2023-04-11T01:21:59.365Z,100210.03
2023-04-11T01:24:26.929Z,100195.28
2023-04-11T01:26:54.392Z,100191.13
2023-04-11T01:29:21.454Z,100215.19
2023-04-11T01:31:51.258Z,100187.34
2023-04-11T01:34:19.367Z,100191.94
2023-04-11T01:36:46.564Z,100192.06
2023-04-11T01:39:13.974Z,100191.34
2023-04-11T01:41:42.371Z,100187.72
2023-04-11T01:44:09.387Z,100196.16
2023-04-11T01:46:36.454Z,100196.53
2023-04-11T01:49:03.549Z,100195.66
2023-04-11T01:51:30.818Z,100182.75
2023-04-11T01:53:58.954Z,100191.53
2023-04-11T01:56:25.993Z,100189.88
2023-04-11T01:58:53.188Z,100217.59
2023-04-11T02:01:21.558Z,100278.19
2023-04-11T02:03:48.739Z,100282.84
2023-04-11T02:06:16.795Z,100275.25
2023-04-11T02:08:48.029Z,100253.47
2023-04-11T02:11:14.952Z,100266.38
2023-04-11T02:13:41.918Z,100286.38
2023-04-11T02:16:15.312Z,100290.78
2023-04-11T02:18:44.650Z,100271.84
2023-04-11T02:21:11.956Z,100224.13
2023-04-11T02:23:38.970Z,100245.09
2023-04-11T02:26:06.176Z,100216.97
2023-04-11T02:28:33.312Z,100218.94
2023-04-11T02:31:00.271Z,100227.75
2023-04-11T02:33:27.360Z,100218.28
2023-04-11T02:35:54.373Z,100222.44
2023-04-11T02:38:21.521Z,100223.09
2023-04-11T02:40:48.543Z,100202.75
2023-04-11T02:43:16.241Z,100214.94
2023-04-11T02:45:43.416Z,100207.22
2023-04-11T02:48:12.442Z,100202.94
2023-04-11T02:50:43.857Z,100209.81
2023-04-11T02:53:11.488Z,100217.41
2023-04-11T02:55:44.594Z,100214.59
2023-04-11T02:58:17.637Z,100218.97
2023-04-11T03:00:44.956Z,100214.84
2023-04-11T03:03:12.250Z,100207.84
2023-04-11T03:05:43.296Z,100209.06
2023-04-11T03:08:10.998Z,100199.75
2023-04-11T03:10:42.096Z,100206.84
2023-04-11T03:13:11.204Z,100176.88
2023-04-11T03:15:38.347Z,100213.03
2023-04-11T03:18:08.297Z,100198.56
2023-04-11T03:20:38.159Z,100214.16
2023-04-11T03:23:06.067Z,100205.97
2023-04-11T03:25:33.624Z,100189.47
2023-04-11T03:28:04.125Z,100212.81
2023-04-11T03:30:31.590Z,100196.50
2023-04-11T03:33:01.102Z,100199.47
2023-04-11T03:35:29.551Z,100188.78
2023-04-11T03:37:56.856Z,100202.75
2023-04-11T03:40:24.798Z,100205.41
2023-04-11T03:43:04.400Z,100178.63
2023-04-11T03:45:33.265Z,100212.63
2023-04-11T03:48:03.042Z,100164.84
2023-04-11T03:50:44.065Z,100208.31
2023-04-11T03:53:13.052Z,100207.13
2023-04-11T03:55:43.358Z,100202.94
2023-04-11T03:58:12.345Z,100196.22
2023-04-11T04:00:41.960Z,100201.97
2023-04-11T04:03:09.961Z,100200.53
2023-04-11T04:05:38.633Z,100198.81
2023-04-11T04:08:06.213Z,100209.81
2023-04-11T04:10:51.846Z,100209.81
2023-04-11T04:13:19.122Z,100197.94
2023-04-11T04:15:52.717Z,100213.44
2023-04-11T04:18:24.427Z,100200.88
2023-04-11T04:20:51.578Z,100193.53
2023-04-11T04:23:20.142Z,100225.34
2023-04-11T04:25:57.943Z,100186.22
2023-04-11T04:28:27.128Z,100201.91
2023-04-11T04:30:58.102Z,100211.97
2023-04-11T04:33:28.140Z,100210.50
2023-04-11T04:36:00.036Z,100215.97
2023-04-11T04:38:30.851Z,100238.34
2023-04-11T04:40:59.405Z,100241.97
2023-04-11T04:43:32.144Z,100220.81
2023-04-11T04:46:13.300Z,100233.53
2023-04-11T04:48:45.660Z,100251.00
2023-04-11T04:51:12.854Z,100257.47
2023-04-11T04:53:40.556Z,100254.84
2023-04-11T04:56:09.664Z,100224.28
2023-04-11T04:58:40.228Z,100256.19
2023-04-11T05:01:11.418Z,100241.28
2023-04-11T05:03:39.087Z,100230.28
2023-04-11T05:06:11.452Z,100231.88
2023-04-11T05:08:39.850Z,100221.81
2023-04-11T05:11:09.432Z,100241.84
2023-04-11T05:13:37.027Z,100240.38
2023-04-11T05:16:05.641Z,100232.34
2023-04-11T05:18:32.704Z,100257.28
2023-04-11T05:20:59.723Z,100237.56
2023-04-11T05:23:33.439Z,100247.16
2023-04-11T05:26:02.438Z,100240.19
2023-04-11T05:28:31.847Z,100244.97
2023-04-11T05:30:59.541Z,100253.34
2023-04-11T05:33:27.040Z,100252.69
2023-04-11T05:35:54.633Z,100261.69
2023-04-11T05:38:21.756Z,100264.81
2023-04-11T05:40:48.658Z,100271.16
2023-04-11T05:43:15.611Z,100279.81
2023-04-11T05:45:47.546Z,100276.78
2023-04-11T05:48:19.639Z,100296.72
2023-04-11T05:50:47.903Z,100296.81
2023-04-11T05:53:14.806Z,100263.84
2023-04-11T05:55:41.764Z,100291.69
2023-04-11T05:58:10.460Z,100299.06
2023-04-11T06:00:38.365Z,100297.03
2023-04-11T06:03:06.267Z,100302.38
2023-04-11T06:05:34.811Z,100308.72
2023-04-11T06:08:03.663Z,100308.28
2023-04-11T06:10:31.217Z,100294.25
2023-04-11T06:12:58.249Z,100311.19
2023-04-11T06:15:29.047Z,100318.06
2023-04-11T06:17:56.097Z,100302.50
2023-04-11T06:20:25.701Z,100301.88
2023-04-11T06:22:52.786Z,100310.47
2023-04-11T06:25:21.535Z,100325.75
2023-04-11T06:27:48.707Z,100306.41
2023-04-11T06:30:15.896Z,100318.81
2023-04-11T06:32:42.812Z,100316.50
2023-04-11T06:35:10.015Z,100311.25
2023-04-11T06:37:36.952Z,100324.16
2023-04-11T06:40:05.692Z,100319.69
2023-04-11T06:42:32.850Z,100321.41
2023-04-11T06:44:59.838Z,100327.03
2023-04-11T06:47:26.803Z,100324.25
2023-04-11T06:49:54.491Z,100339.88
2023-04-11T06:52:21.551Z,100326.28
2023-04-11T06:54:48.818Z,100338.91
2023-04-11T06:57:15.748Z,100336.22
2023-04-11T06:59:42.626Z,100353.97
2023-04-11T07:02:09.643Z,100337.88
2023-04-11T07:04:36.717Z,100329.56
2023-04-11T07:07:04.500Z,100349.44
2023-04-11T07:09:31.894Z,100362.09
2023-04-11T07:11:58.817Z,100351.84
2023-04-11T07:14:25.811Z,100355.16
2023-04-11T07:16:52.722Z,100325.72
2023-04-11T07:19:19.607Z,100341.25
2023-04-11T07:21:46.521Z,100361.78
2023-04-11T07:24:13.405Z,100360.94
2023-04-11T07:26:42.227Z,100357.97
2023-04-11T07:29:11.630Z,100354.31
2023-04-11T07:31:40.769Z,100382.63
2023-04-11T07:34:07.792Z,100361.44
2023-04-11T07:36:34.953Z,100396.38
2023-04-11T07:39:04.171Z,100383.84
2023-04-11T07:41:31.035Z,100364.53
2023-04-11T07:43:58.227Z,100387.44
2023-04-11T07:46:25.352Z,100367.00
2023-04-11T07:48:52.375Z,100387.31
2023-04-11T07:51:19.329Z,100387.19
2023-04-11T07:53:46.343Z,100391.59
2023-04-11T07:56:14.927Z,100399.22
2023-04-11T07:58:41.948Z,100395.47
2023-04-11T08:01:26.714Z,100387.84
2023-04-11T08:03:55.393Z,100386.03
2023-04-11T08:06:23.242Z,100382.78
2023-04-11T08:08:51.370Z,100399.78
2023-04-11T08:11:18.462Z,100385.38
2023-04-11T08:13:45.655Z,100376.06
2023-04-11T08:16:15.424Z,100395.53
2023-04-11T08:18:42.745Z,100388.66
2023-04-11T08:21:12.608Z,100389.16
2023-04-11T08:23:42.294Z,100417.03
2023-04-11T08:26:10.684Z,100415.03
2023-04-11T08:28:37.586Z,100406.97
2023-04-11T08:31:05.647Z,100419.69
2023-04-11T08:33:33.151Z,100413.59
2023-04-11T08:36:00.073Z,100389.78
2023-04-11T08:38:27.151Z,100420.44
2023-04-11T08:40:55.281Z,100423.75
2023-04-11T08:43:22.439Z,100416.53
2023-04-11T08:45:49.392Z,100425.34
2023-04-11T08:48:16.518Z,100416.41
2023-04-11T08:50:44.616Z,100426.03
2023-04-11T08:53:12.462Z,100416.53
2023-04-11T08:55:46.953Z,100454.38
2023-04-11T08:58:14.724Z,100435.19
2023-04-11T09:00:41.700Z,100423.66
2023-04-11T09:03:11.470Z,100447.91
2023-04-11T09:05:41.466Z,100445.47
2023-04-11T09:08:11.026Z,100425.44
2023-04-11T09:10:45.355Z,100445.47
2023-04-11T09:13:23.893Z,100446.97
2023-04-11T09:16:07.114Z,100458.22
2023-04-11T09:18:39.903Z,100461.25
2023-04-11T09:21:09.858Z,100471.28
2023-04-11T09:23:37.495Z,100463.91
2023-04-11T09:26:25.518Z,100446.38
2023-04-11T09:28:53.465Z,100471.13
2023-04-11T09:31:21.886Z,100467.84
2023-04-11T09:33:54.589Z,100449.88
2023-04-11T09:36:25.052Z,100459.09
2023-04-11T09:38:52.123Z,100476.31
2023-04-11T09:41:36.387Z,100490.81
2023-04-11T09:44:03.547Z,100462.94
2023-04-11T09:46:30.590Z,100461.59
2023-04-11T09:48:57.676Z,100473.91
2023-04-11T09:51:35.978Z,100471.34
2023-04-11T09:54:05.536Z,100465.81
2023-04-11T09:56:38.407Z,100483.38
2023-04-11T09:59:05.663Z,100475.56
2023-04-11T10:01:32.891Z,100485.31
2023-04-11T10:04:01.472Z,100478.72
2023-04-11T10:06:41.761Z,100481.53
2023-04-11T10:09:11.772Z,100503.91
2023-04-11T10:11:43.068Z,100498.13
2023-04-11T10:14:38.706Z,100480.97
2023-04-11T10:17:20.490Z,100495.88
2023-04-11T10:19:49.287Z,100501.56
2023-04-11T10:23:00.848Z,100500.44
2023-04-11T10:25:28.791Z,100493.59
2023-04-11T10:28:03.922Z,100492.53
2023-04-11T10:30:39.929Z,100501.06
2023-04-11T10:33:18.022Z,100491.56
2023-04-11T10:36:11.181Z,100491.38
2023-04-11T10:38:41.667Z,100490.31
2023-04-11T10:41:27.163Z,100497.19
2023-04-11T10:44:24.870Z,100501.78
2023-04-11T10:46:54.606Z,100513.97
2023-04-11T10:49:38.503Z,100505.06
2023-04-11T10:52:22.905Z,100516.50
2023-04-11T10:54:52.138Z,100507.47
2023-04-11T10:57:20.048Z,100522.47
2023-04-11T10:59:50.002Z,100507.22
2023-04-11T11:02:17.354Z,100500.75
2023-04-11T11:04:44.468Z,100497.50
2023-04-11T11:07:17.400Z,100501.72
2023-04-11T11:09:53.597Z,100492.69
2023-04-11T11:12:20.518Z,100508.63
2023-04-11T11:14:47.692Z,100508.34
2023-04-11T11:17:16.156Z,100509.34
2023-04-11T11:19:48.147Z,100499.13
2023-04-11T11:22:26.403Z,100515.50
2023-04-11T11:24:53.494Z,100485.88
2023-04-11T11:27:24.611Z,100490.16
2023-04-11T11:29:52.315Z,100477.50
2023-04-11T11:32:30.014Z,100496.88
2023-04-11T11:34:57.679Z,100493.84
2023-04-11T11:37:25.262Z,100521.50
2023-04-11T11:39:52.678Z,100507.66
2023-04-11T11:42:19.665Z,100513.75
2023-04-11T11:44:46.631Z,100525.63
2023-04-11T11:47:16.686Z,100542.13
2023-04-11T11:49:55.381Z,100535.19
2023-04-11T11:52:36.356Z,100521.72
2023-04-11T11:55:08.042Z,100529.13
2023-04-11T11:57:37.455Z,100546.59
2023-04-11T12:00:11.566Z,100534.75
2023-04-11T12:02:40.005Z,100533.63
2023-04-11T12:05:08.561Z,100531.63
2023-04-11T12:07:38.295Z,100532.44
2023-04-11T12:10:13.793Z,100538.16
2023-04-11T12:12:43.221Z,100526.31
2023-04-11T12:15:16.053Z,100511.97
2023-04-11T12:17:43.988Z,100521.66
2023-04-11T12:20:11.302Z,100531.19
2023-04-11T12:22:38.610Z,100520.53
2023-04-11T12:25:11.638Z,100524.81
2023-04-11T12:27:40.259Z,100545.56
2023-04-11T12:30:08.487Z,100536.81
2023-04-11T12:32:35.780Z,100548.03
2023-04-11T12:35:05.389Z,100550.56
2023-04-11T12:37:33.917Z,100527.88
2023-04-11T12:40:01.301Z,100554.66
2023-04-11T12:42:28.426Z,100560.50
2023-04-11T12:44:55.444Z,100526.41
2023-04-11T12:47:22.446Z,100536.59
2023-04-11T12:49:49.473Z,100538.56
2023-04-11T12:52:17.320Z,100533.97
2023-04-11T12:54:44.242Z,100541.59
2023-04-11T12:57:12.368Z,100564.41
2023-04-11T12:59:39.498Z,100553.31
2023-04-11T13:02:06.785Z,100545.50
2023-04-11T13:04:34.061Z,100552.97
2023-04-11T13:07:01.914Z,100530.03
2023-04-11T13:09:29.751Z,100542.59
2023-04-11T13:11:57.501Z,100566.53
2023-04-11T13:14:24.743Z,100558.00
2023-04-11T13:16:51.731Z,100555.44
2023-04-11T13:19:18.663Z,100553.09
2023-04-11T13:21:45.611Z,100566.63
2023-04-11T13:24:12.648Z,100565.56
2023-04-11T13:26:40.110Z,100562.97
2023-04-11T13:29:07.611Z,100548.47
2023-04-11T13:31:34.673Z,100578.44
2023-04-11T13:34:02.170Z,100560.91
2023-04-11T13:36:29.435Z,100588.03
2023-04-11T13:38:57.570Z,100573.31
2023-04-11T13:41:25.451Z,100577.47
2023-04-11T13:43:52.836Z,100594.50
2023-04-11T13:46:21.748Z,100582.88
2023-04-11T13:48:48.857Z,100587.34
2023-04-11T13:51:15.942Z,100559.97
2023-04-11T13:53:42.920Z,100582.34
2023-04-11T13:56:10.621Z,100579.22
2023-04-11T13:58:38.252Z,100604.09
2023-04-11T14:01:06.680Z,100596.09
2023-04-11T14:03:34.059Z,100601.34
2023-04-11T14:06:01.748Z,100618.19
2023-04-11T14:08:29.181Z,100598.59
2023-04-11T14:10:56.499Z,100624.47
2023-04-11T14:13:23.443Z,100624.25
2023-04-11T14:16:04.864Z,100623.25
2023-04-11T14:18:35.826Z,100627.69
2023-04-11T14:21:07.159Z,100632.34
2023-04-11T14:23:34.189Z,100634.44
2023-04-11T14:26:01.222Z,100642.09
2023-04-11T14:28:28.176Z,100642.81
2023-04-11T14:30:56.168Z,100611.56
2023-04-11T14:33:23.441Z,100640.72
2023-04-11T14:35:51.153Z,100634.69
2023-04-11T14:38:18.132Z,100638.78
2023-04-11T14:40:45.454Z,100643.09
2023-04-11T14:43:12.586Z,100612.13
2023-04-11T14:45:39.558Z,100634.50
2023-04-11T14:48:06.741Z,100640.47
2023-04-11T14:50:33.878Z,100638.06
2023-04-11T14:53:01.027Z,100639.88
2023-04-11T14:55:28.051Z,100654.09
2023-04-11T14:57:56.564Z,100658.16
2023-04-11T15:00:24.742Z,100647.69
2023-04-11T15:02:56.462Z,100651.41
2023-04-11T15:05:24.392Z,100646.41
2023-04-11T15:07:52.806Z,100630.56
2023-04-11T15:10:22.713Z,100658.53
2023-04-11T15:12:49.833Z,100647.69
2023-04-11T15:15:16.930Z,100643.03
2023-04-11T15:17:49.882Z,100658.44
2023-04-11T15:20:17.224Z,100653.44
2023-04-11T15:22:47.755Z,100655.16
2023-04-11T15:25:16.546Z,100650.63
2023-04-11T15:27:44.007Z,100638.34
2023-04-11T15:30:11.527Z,100667.97
2023-04-11T15:32:44.889Z,100661.56
2023-04-11T15:35:12.331Z,100656.03
2023-04-11T15:37:39.499Z,100647.75
2023-04-11T15:40:09.092Z,100666.13
2023-04-11T15:42:37.502Z,100649.19
2023-04-11T15:45:05.195Z,100658.72
2023-04-11T15:47:33.429Z,100654.63
2023-04-11T15:50:04.599Z,100652.47
2023-04-11T15:52:31.524Z,100663.44
2023-04-11T15:54:58.459Z,100656.00
2023-04-11T15:57:27.369Z,100652.72
2023-04-11T15:59:54.650Z,100659.72
2023-04-11T16:02:21.665Z,100660.88
2023-04-11T16:04:51.979Z,100651.19
2023-04-11T16:07:24.972Z,100667.00
2023-04-11T16:09:51.994Z,100658.03
2023-04-11T16:12:18.972Z,100654.59
2023-04-11T16:14:46.009Z,100633.50
2023-04-11T16:17:15.738Z,100636.66
2023-04-11T16:19:42.690Z,100654.75
2023-04-11T16:22:09.640Z,100642.06
2023-04-11T16:24:36.562Z,100653.31
2023-04-11T16:27:03.952Z,100637.78
2023-04-11T16:29:30.979Z,100653.19
2023-04-11T16:31:58.103Z,100660.44
2023-04-11T16:34:25.247Z,100647.78
2023-04-11T16:36:52.411Z,100661.31
2023-04-11T16:39:19.286Z,100658.31
2023-04-11T16:41:46.250Z,100651.63
2023-04-11T16:44:13.376Z,100665.44
2023-04-11T16:46:43.995Z,100670.56
2023-04-11T16:49:11.351Z,100659.56
2023-04-11T16:51:38.350Z,100655.34
2023-04-11T16:54:09.822Z,100663.81
2023-04-11T16:56:37.454Z,100647.97
2023-04-11T16:59:05.058Z,100654.28
2023-04-11T17:01:32.427Z,100646.59
2023-04-11T17:04:01.194Z,100651.31
2023-04-11T17:06:28.629Z,100645.06
2023-04-11T17:08:57.403Z,100636.22
2023-04-11T17:11:24.951Z,100658.59
2023-04-11T17:13:54.402Z,100659.44
2023-04-11T17:16:22.836Z,100654.44
2023-04-11T17:18:49.762Z,100652.78
2023-04-11T17:21:17.120Z,100644.94
2023-04-11T17:23:44.575Z,100637.09
2023-04-11T17:26:12.113Z,100641.50
2023-04-11T17:28:48.294Z,100646.22
2023-04-11T17:31:18.492Z,100649.47
2023-04-11T17:33:45.543Z,100633.38
2023-04-11T17:36:13.300Z,100650.84
2023-04-11T17:38:42.060Z,100651.81
2023-04-11T17:43:38.985Z,100648.38
2023-04-11T17:46:07.334Z,100654.88
2023-04-11T17:48:34.477Z,100644.56
2023-04-11T17:51:04.201Z,100659.78
2023-04-11T17:53:31.263Z,100656.84
2023-04-11T17:55:58.228Z,100649.56
2023-04-11T17:58:25.385Z,100651.34
2023-04-11T18:00:56.279Z,100654.22
2023-04-11T18:03:25.352Z,100655.94
2023-04-11T18:05:55.027Z,100645.69
2023-04-11T18:08:35.489Z,100658.81
2023-04-11T18:11:10.103Z,100649.69
2023-04-11T18:13:36.976Z,100658.59
2023-04-11T18:16:04.246Z,100667.25
2023-04-11T18:18:31.321Z,100660.78
2023-04-11T18:21:07.039Z,100669.44
2023-04-11T18:23:34.706Z,100667.97
2023-04-11T18:26:01.678Z,100678.06
2023-04-11T18:28:29.068Z,100689.50
2023-04-11T18:30:56.297Z,100686.81
2023-04-11T18:33:23.322Z,100680.91
2023-04-11T18:35:50.418Z,100671.06
2023-04-11T18:38:17.657Z,100685.75
2023-04-11T18:40:44.854Z,100673.94
2023-04-11T18:43:11.811Z,100687.47
2023-04-11T18:45:39.424Z,100677.19
2023-04-11T18:50:38.686Z,100694.34
2023-04-11T18:53:09.117Z,100682.50
2023-04-11T18:55:38.706Z,100680.88
2023-04-11T18:58:09.174Z,100686.03
2023-04-11T19:00:38.917Z,100694.00
2023-04-11T19:03:07.126Z,100699.03
2023-04-11T19:05:34.681Z,100697.53
2023-04-11T19:08:01.939Z,100697.66
2023-04-11T19:10:28.932Z,100690.66
2023-04-11T19:12:56.938Z,100694.19
2023-04-11T19:15:24.023Z,100687.91
2023-04-11T19:17:51.474Z,100708.38
2023-04-11T19:20:19.180Z,100692.03
2023-04-11T19:22:46.538Z,100707.84
2023-04-11T19:25:14.617Z,100702.69
2023-04-11T19:27:42.381Z,100707.56
2023-04-11T19:30:13.300Z,100699.09
2023-04-11T19:32:43.126Z,100689.03
2023-04-11T19:35:11.581Z,100687.50
2023-04-11T19:37:39.233Z,100685.28
2023-04-11T19:40:07.641Z,100679.38
2023-04-11T19:42:37.146Z,100684.81
2023-04-11T19:45:05.200Z,100680.75
2023-04-11T19:47:32.725Z,100682.38
2023-04-11T19:50:00.979Z,100661.59
2023-04-11T19:52:29.120Z,100681.19
2023-04-11T19:54:56.789Z,100677.50
2023-04-11T19:57:27.060Z,100678.50
2023-04-11T19:59:54.243Z,100668.19
2023-04-11T20:02:21.390Z,100621.94
2023-04-11T20:04:49.416Z,100641.69
2023-04-11T20:07:16.939Z,100644.13
2023-04-11T20:09:44.024Z,100648.09
2023-04-11T20:12:11.106Z,100644.81
2023-04-11T20:14:38.224Z,100642.75
2023-04-11T20:17:06.286Z,100634.59
2023-04-11T20:19:33.461Z,100630.38
2023-04-11T20:22:03.225Z,100614.22
2023-04-11T20:24:30.196Z,100620.88
2023-04-11T20:26:57.314Z,100635.13
2023-04-11T20:29:25.976Z,100632.78
2023-04-11T20:31:52.858Z,100614.75
2023-04-11T20:34:19.913Z,100624.53
2023-04-11T20:36:47.458Z,100623.22
2023-04-11T20:39:14.340Z,100625.59
2023-04-11T20:41:41.783Z,100628.59
2023-04-11T20:44:08.699Z,100633.13
2023-04-11T20:46:39.623Z,100612.31
2023-04-11T20:49:06.868Z,100618.53
2023-04-11T20:51:34.514Z,100622.81
2023-04-11T20:54:01.681Z,100607.66
2023-04-11T20:56:35.180Z,100606.63
2023-04-11T20:59:03.448Z,100598.91
2023-04-11T21:01:32.640Z,100591.81
2023-04-11T21:04:03.455Z,100611.88
2023-04-11T21:06:31.769Z,100578.47
2023-04-11T21:09:00.252Z,100592.41
2023-04-11T21:11:27.257Z,100592.31
2023-04-11T21:13:54.688Z,100565.63
2023-04-11T21:16:22.202Z,100601.25
2023-04-11T21:18:49.191Z,100586.44
2023-04-11T21:21:16.447Z,100587.63
2023-04-11T21:23:43.620Z,100586.56
2023-04-11T21:26:11.645Z,100592.88
2023-04-11T21:28:38.791Z,100593.28
2023-04-11T21:31:06.088Z,100584.59
2023-04-11T21:33:33.064Z,100564.84
2023-04-11T21:36:00.093Z,100570.53
2023-04-11T21:38:27.112Z,100571.81
2023-04-11T21:40:56.216Z,100561.44
2023-04-11T21:43:23.163Z,100562.47
2023-04-11T21:45:50.263Z,100550.75
2023-04-11T21:48:17.126Z,100547.09
2023-04-11T21:50:45.398Z,100542.34
2023-04-11T21:53:13.952Z,100537.66
2023-04-11T21:55:47.856Z,100557.22
2023-04-11T21:58:27.923Z,100544.09
2023-04-11T22:00:56.526Z,100561.63
2023-04-11T22:03:24.135Z,100542.38
2023-04-11T22:05:52.238Z,100562.59
2023-04-11T22:08:19.797Z,100554.06
2023-04-11T22:10:48.132Z,100539.72
2023-04-11T22:13:18.310Z,100538.88
2023-04-11T22:15:46.701Z,100537.13
2023-04-11T22:18:13.977Z,100532.84
2023-04-11T22:20:45.150Z,100535.41
2023-04-11T22:23:13.187Z,100526.63
2023-04-11T22:25:44.162Z,100526.31
2023-04-11T22:28:18.276Z,100531.13
2023-04-11T22:30:46.527Z,100524.91
2023-04-11T22:33:14.112Z,100535.31
2023-04-11T22:35:45.143Z,100515.22
2023-04-11T22:38:12.123Z,100510.19
2023-04-11T22:40:40.141Z,100510.53
2023-04-11T22:43:07.369Z,100508.50
2023-04-11T22:45:35.838Z,100483.44
2023-04-11T22:48:05.866Z,100479.34
2023-04-11T22:50:37.127Z,100479.47
2023-04-11T22:53:05.560Z,100480.34
2023-04-11T22:55:34.261Z,100494.59
2023-04-11T22:58:04.724Z,100483.53
2023-04-11T23:00:37.980Z,100479.25
2023-04-11T23:03:05.558Z,100485.25
2023-04-11T23:05:32.470Z,100459.56
2023-04-11T23:07:59.368Z,100450.94
2023-04-11T23:10:26.338Z,100447.63
2023-04-11T23:12:53.319Z,100444.75
2023-04-11T23:15:21.861Z,100459.63
2023-04-11T23:17:49.249Z,100444.19
2023-04-11T23:20:17.523Z,100433.78
2023-04-11T23:22:44.845Z,100424.16
2023-04-11T23:25:12.619Z,100439.72
2023-04-11T23:27:40.265Z,100413.03
2023-04-11T23:30:08.077Z,100428.03
2023-04-11T23:32:35.083Z,100407.38
2023-04-11T23:35:04.488Z,100407.56
2023-04-11T23:37:32.079Z,100402.75
2023-04-11T23:39:59.734Z,100398.97
2023-04-11T23:42:26.665Z,100384.09
2023-04-11T23:44:53.669Z,100379.38
2023-04-11T23:47:20.766Z,100372.19
2023-04-11T23:49:47.723Z,100362.16
2023-04-11T23:52:14.635Z,100378.56
2023-04-11T23:54:41.611Z,100366.13
2023-04-11T23:57:08.517Z,100359.81
2023-04-11T23:59:36.057Z,100347.47
